Terminal Aerodrome Forecast
Issued by NWS Upton, NY

Home | Current Version | Previous Version | Text Only | Print | Product List | Glossary On
Versions: 1 2 3 4 5 6 7 8 9 10 11 12 13 14 15 16 17 18 19 20 21 22 23 24 25 26 27 28 29 30 31 32 33 34 35 36 37
000
FTUS41 KOKX 222331
TAFEWR
TAF
KEWR 222331Z 2300/2406 16008KT P6SM SCT050 BKN100
     FM230100 19008KT P6SM SCT050 BKN100
     FM230500 21005KT P6SM SCT050 BKN100
     FM230800 21004KT 2SM BR SCT005 BKN100
     FM231000 21004KT P6SM SCT005 BKN100
     FM231200 22006KT P6SM VCSH SCT005 BKN100
     FM231400 22010KT P6SM VCSH SCT025 BKN100
     FM231900 23013KT P6SM VCTS SCT025CB BKN050
     FM240500 25011KT 3SM SHRA VCTS SCT015CB BKN050=

USA.gov is the U.S. government's official web portal to all federal, state and local government web resources and services.